Hovedside
METAR-TAF:

METAR-TAF

Lufthavner :

Berlevåg, Norge

Berlevåg lufthavn

breddegrad: 70-52N, lengdegrad: 029-02E, høyde over havet: 1 m

Gjeldene værobservasjon

Denne rapporten ble laget for 23 minutter siden, klokken 19:50 UTC
Vind 13 kt fra Nord-nordvest
Temperatur 1°C
Luftfuktighet 80%
Trykk 1010 hPa
Sikt: 4000 m
Spredte skyer i en høyde av 2600 ft
Brutte skyer i en høyde av 4000 ft
lette snøbyger

METAR: ENBV 281950Z 33013KT 9999 4000W -SHSN SCT026 BKN040 01/M02 Q1010

Tid: 22:13 (20:13 UTC)


TAF: fraværende

Værobservasjoner og værvarsel for over 4000 flyplasser (METAR- og TAF-rapporter).

Tilgjengelige stasjoner er representert av de røde og gule prikkene på kartet.

Hold musepekeren over prikken for å se navnet på stasjonen.

Klikk så for å se værobservasjoner og -varsler.

For å forandre kartet kan du klikke på den grønne knappen med svart kryss for å zoome inn, på den grønne knappen med strek for å zoome ut, eller på de grønne pilene for å se tilstøtende kart.


METAR-TAF: